Oak, Nebraska
Current Conditions -  °F | °C
As of 5:55 PM on Sunday 23 Nov 2014 (Local Time) from KHJH Reporting Station
Clear Clear  
Wind Chill: 37°   Ceiling: Unl
Heat Index: 41°   Visibility: 10mi
Dew Point: 32°   Wind: 7mph
Humidity: 70%   Direction: 340°NNW
Pressure: 29.6"   Gusts: NA
Location:  40.24°N, 97.9°W
Report Text: KHJH 232355Z AUTO 34006KT 10SM CLR 05/00 A2960 RMK AO2 60001 T00510000 10070 20047
Loading
Personal Weather Stations






























Interactive Weather Map New forecast layout! Learn more

10-Day Weather Forecast

Advertisements
Track Severe Weather on mobile